sensor_id;sensor_type;location;lat;lon;timestamp;P1;durP1;ratioP1;P2;durP2;ratioP2
12597;SDS011;6364;53.590;9.956;2023-04-15T00:00:27;8.40;;;5.78;;
12597;SDS011;6364;53.590;9.956;2023-04-15T00:02:55;6.88;;;5.32;;
12597;SDS011;6364;53.590;9.956;2023-04-15T00:05:21;7.80;;;6.00;;
12597;SDS011;6364;53.590;9.956;2023-04-15T00:07:46;7.93;;;5.85;;
12597;SDS011;6364;53.590;9.956;2023-04-15T00:10:11;7.93;;;5.50;;
12597;SDS011;6364;53.590;9.956;2023-04-15T00:12:38;7.97;;;5.50;;
12597;SDS011;6364;53.590;9.956;2023-04-15T00:15:03;13.65;;;5.60;;
12597;SDS011;6364;53.590;9.956;2023-04-15T00:17:29;9.13;;;5.70;;
12597;SDS011;6364;53.590;9.956;2023-04-15T00:19:55;7.03;;;5.55;;
12597;SDS011;6364;53.590;9.956;2023-04-15T00:22:20;7.85;;;6.10;;
12597;SDS011;6364;53.590;9.956;2023-04-15T00:24:45;8.18;;;5.70;;
12597;SDS011;6364;53.590;9.956;2023-04-15T00:27:10;9.70;;;6.32;;
12597;SDS011;6364;53.590;9.956;2023-04-15T00:29:36;8.05;;;6.07;;
12597;SDS011;6364;53.590;9.956;2023-04-15T00:32:01;7.75;;;6.03;;
12597;SDS011;6364;53.590;9.956;2023-04-15T00:34:26;9.55;;;5.88;;
12597;SDS011;6364;53.590;9.956;2023-04-15T00:36:52;9.52;;;6.10;;
12597;SDS011;6364;53.590;9.956;2023-04-15T00:39:18;9.02;;;6.30;;
12597;SDS011;6364;53.590;9.956;2023-04-15T00:41:44;10.57;;;6.03;;
12597;SDS011;6364;53.590;9.956;2023-04-15T00:44:09;8.40;;;6.40;;
12597;SDS011;6364;53.590;9.956;2023-04-15T00:46:35;10.77;;;6.72;;
12597;SDS011;6364;53.590;9.956;2023-04-15T00:49:02;8.98;;;6.03;;
12597;SDS011;6364;53.590;9.956;2023-04-15T00:51:28;10.75;;;7.00;;
12597;SDS011;6364;53.590;9.956;2023-04-15T00:53:55;8.80;;;5.90;;
12597;SDS011;6364;53.590;9.956;2023-04-15T00:56:21;11.23;;;6.97;;
12597;SDS011;6364;53.590;9.956;2023-04-15T00:58:48;11.02;;;6.85;;
12597;SDS011;6364;53.590;9.956;2023-04-15T01:01:14;10.75;;;6.57;;
12597;SDS011;6364;53.590;9.956;2023-04-15T01:03:40;9.50;;;6.88;;
12597;SDS011;6364;53.590;9.956;2023-04-15T01:06:05;8.98;;;6.50;;
12597;SDS011;6364;53.590;9.956;2023-04-15T01:08:31;11.10;;;7.38;;
12597;SDS011;6364;53.590;9.956;2023-04-15T01:10:57;10.45;;;7.35;;
12597;SDS011;6364;53.590;9.956;2023-04-15T01:13:23;14.02;;;7.65;;
12597;SDS011;6364;53.590;9.956;2023-04-15T01:15:49;11.98;;;7.72;;
12597;SDS011;6364;53.590;9.956;2023-04-15T01:18:15;11.88;;;8.30;;
12597;SDS011;6364;53.590;9.956;2023-04-15T01:20:41;13.73;;;8.40;;
12597;SDS011;6364;53.590;9.956;2023-04-15T01:23:06;14.60;;;8.48;;
12597;SDS011;6364;53.590;9.956;2023-04-15T01:25:32;12.35;;;8.73;;
12597;SDS011;6364;53.590;9.956;2023-04-15T01:27:58;13.80;;;8.50;;
12597;SDS011;6364;53.590;9.956;2023-04-15T01:30:24;12.98;;;8.80;;
12597;SDS011;6364;53.590;9.956;2023-04-15T01:32:51;13.73;;;9.02;;
12597;SDS011;6364;53.590;9.956;2023-04-15T01:35:16;13.90;;;8.95;;
12597;SDS011;6364;53.590;9.956;2023-04-15T01:37:42;13.75;;;9.10;;
12597;SDS011;6364;53.590;9.956;2023-04-15T01:40:07;14.95;;;9.18;;
12597;SDS011;6364;53.590;9.956;2023-04-15T01:42:34;14.13;;;8.93;;
12597;SDS011;6364;53.590;9.956;2023-04-15T01:45:00;13.02;;;8.73;;
12597;SDS011;6364;53.590;9.956;2023-04-15T01:47:26;13.80;;;9.32;;
12597;SDS011;6364;53.590;9.956;2023-04-15T01:49:51;14.32;;;9.85;;
12597;SDS011;6364;53.590;9.956;2023-04-15T01:52:17;16.60;;;10.43;;
12597;SDS011;6364;53.590;9.956;2023-04-15T01:54:42;17.15;;;9.98;;
12597;SDS011;6364;53.590;9.956;2023-04-15T01:57:07;14.38;;;9.60;;
12597;SDS011;6364;53.590;9.956;2023-04-15T01:59:33;18.42;;;9.85;;
12597;SDS011;6364;53.590;9.956;2023-04-15T02:01:58;18.05;;;10.60;;
12597;SDS011;6364;53.590;9.956;2023-04-15T02:04:24;16.38;;;10.43;;
12597;SDS011;6364;53.590;9.956;2023-04-15T02:06:49;18.88;;;10.15;;
12597;SDS011;6364;53.590;9.956;2023-04-15T02:09:15;16.02;;;10.25;;
12597;SDS011;6364;53.590;9.956;2023-04-15T02:11:40;17.80;;;9.75;;
12597;SDS011;6364;53.590;9.956;2023-04-15T02:14:05;14.25;;;10.23;;
12597;SDS011;6364;53.590;9.956;2023-04-15T02:16:31;17.42;;;10.63;;
12597;SDS011;6364;53.590;9.956;2023-04-15T02:18:56;17.08;;;10.57;;
12597;SDS011;6364;53.590;9.956;2023-04-15T02:21:22;17.00;;;10.95;;
12597;SDS011;6364;53.590;9.956;2023-04-15T02:23:47;16.88;;;10.82;;
12597;SDS011;6364;53.590;9.956;2023-04-15T02:26:12;16.90;;;10.73;;
12597;SDS011;6364;53.590;9.956;2023-04-15T02:28:38;19.40;;;10.45;;
12597;SDS011;6364;53.590;9.956;2023-04-15T02:31:04;18.13;;;10.95;;
12597;SDS011;6364;53.590;9.956;2023-04-15T02:33:33;18.90;;;11.18;;
12597;SDS011;6364;53.590;9.956;2023-04-15T02:35:59;20.63;;;12.07;;
12597;SDS011;6364;53.590;9.956;2023-04-15T02:38:24;21.23;;;12.07;;
12597;SDS011;6364;53.590;9.956;2023-04-15T02:40:49;20.67;;;11.60;;
12597;SDS011;6364;53.590;9.956;2023-04-15T02:43:15;17.13;;;10.90;;
12597;SDS011;6364;53.590;9.956;2023-04-15T02:45:41;22.77;;;11.98;;
12597;SDS011;6364;53.590;9.956;2023-04-15T02:48:07;23.67;;;12.38;;
12597;SDS011;6364;53.590;9.956;2023-04-15T02:50:33;21.67;;;11.95;;
12597;SDS011;6364;53.590;9.956;2023-04-15T02:52:58;21.75;;;12.68;;
12597;SDS011;6364;53.590;9.956;2023-04-15T02:55:25;21.77;;;12.07;;
12597;SDS011;6364;53.590;9.956;2023-04-15T02:57:50;27.63;;;11.73;;
12597;SDS011;6364;53.590;9.956;2023-04-15T03:00:16;23.73;;;13.18;;
12597;SDS011;6364;53.590;9.956;2023-04-15T03:02:41;22.42;;;12.57;;
12597;SDS011;6364;53.590;9.956;2023-04-15T03:05:10;26.05;;;13.30;;
12597;SDS011;6364;53.590;9.956;2023-04-15T03:07:36;21.92;;;11.98;;
12597;SDS011;6364;53.590;9.956;2023-04-15T03:10:01;23.40;;;13.10;;
12597;SDS011;6364;53.590;9.956;2023-04-15T03:12:27;24.83;;;13.65;;
12597;SDS011;6364;53.590;9.956;2023-04-15T03:14:54;25.55;;;12.98;;
12597;SDS011;6364;53.590;9.956;2023-04-15T03:17:19;22.88;;;12.90;;
12597;SDS011;6364;53.590;9.956;2023-04-15T03:19:45;28.55;;;13.18;;
12597;SDS011;6364;53.590;9.956;2023-04-15T03:22:11;24.25;;;13.95;;
12597;SDS011;6364;53.590;9.956;2023-04-15T03:24:36;24.60;;;13.82;;
12597;SDS011;6364;53.590;9.956;2023-04-15T03:27:01;25.55;;;13.38;;
12597;SDS011;6364;53.590;9.956;2023-04-15T03:29:27;25.83;;;13.75;;
12597;SDS011;6364;53.590;9.956;2023-04-15T03:31:52;28.08;;;14.20;;
12597;SDS011;6364;53.590;9.956;2023-04-15T03:34:18;28.42;;;14.57;;
12597;SDS011;6364;53.590;9.956;2023-04-15T03:36:43;26.15;;;13.43;;
12597;SDS011;6364;53.590;9.956;2023-04-15T03:39:08;33.42;;;15.45;;
12597;SDS011;6364;53.590;9.956;2023-04-15T03:41:34;28.48;;;15.10;;
12597;SDS011;6364;53.590;9.956;2023-04-15T03:43:59;30.92;;;15.90;;
12597;SDS011;6364;53.590;9.956;2023-04-15T03:46:25;29.38;;;14.98;;
12597;SDS011;6364;53.590;9.956;2023-04-15T03:48:50;32.85;;;15.63;;
12597;SDS011;6364;53.590;9.956;2023-04-15T03:51:16;32.13;;;15.68;;
12597;SDS011;6364;53.590;9.956;2023-04-15T03:53:41;31.83;;;16.33;;
12597;SDS011;6364;53.590;9.956;2023-04-15T03:56:06;35.35;;;15.68;;
12597;SDS011;6364;53.590;9.956;2023-04-15T03:58:32;35.70;;;16.27;;
12597;SDS011;6364;53.590;9.956;2023-04-15T04:00:57;39.08;;;17.90;;
12597;SDS011;6364;53.590;9.956;2023-04-15T04:03:22;39.80;;;18.50;;
12597;SDS011;6364;53.590;9.956;2023-04-15T04:05:47;40.60;;;18.75;;
12597;SDS011;6364;53.590;9.956;2023-04-15T04:08:13;38.53;;;17.77;;
12597;SDS011;6364;53.590;9.956;2023-04-15T04:10:40;43.28;;;19.38;;
12597;SDS011;6364;53.590;9.956;2023-04-15T04:13:05;48.30;;;20.23;;
12597;SDS011;6364;53.590;9.956;2023-04-15T04:15:31;42.47;;;19.98;;
12597;SDS011;6364;53.590;9.956;2023-04-15T04:17:56;47.35;;;20.85;;
12597;SDS011;6364;53.590;9.956;2023-04-15T04:20:21;50.80;;;20.30;;
12597;SDS011;6364;53.590;9.956;2023-04-15T04:22:47;44.20;;;20.45;;
12597;SDS011;6364;53.590;9.956;2023-04-15T04:25:12;47.08;;;20.33;;
12597;SDS011;6364;53.590;9.956;2023-04-15T04:27:38;50.83;;;20.83;;
12597;SDS011;6364;53.590;9.956;2023-04-15T04:30:04;50.47;;;22.17;;
12597;SDS011;6364;53.590;9.956;2023-04-15T04:32:30;52.67;;;22.63;;
12597;SDS011;6364;53.590;9.956;2023-04-15T04:34:56;50.58;;;21.98;;
12597;SDS011;6364;53.590;9.956;2023-04-15T04:37:21;51.63;;;22.00;;
12597;SDS011;6364;53.590;9.956;2023-04-15T04:39:47;54.30;;;22.80;;
12597;SDS011;6364;53.590;9.956;2023-04-15T04:42:12;52.72;;;23.42;;
12597;SDS011;6364;53.590;9.956;2023-04-15T04:44:38;56.28;;;24.30;;
12597;SDS011;6364;53.590;9.956;2023-04-15T04:47:03;59.13;;;24.58;;
12597;SDS011;6364;53.590;9.956;2023-04-15T04:49:28;53.47;;;24.33;;
12597;SDS011;6364;53.590;9.956;2023-04-15T04:51:54;61.65;;;26.10;;
12597;SDS011;6364;53.590;9.956;2023-04-15T04:54:19;61.53;;;26.45;;
12597;SDS011;6364;53.590;9.956;2023-04-15T04:56:45;64.45;;;26.58;;
12597;SDS011;6364;53.590;9.956;2023-04-15T04:59:11;67.68;;;27.00;;
12597;SDS011;6364;53.590;9.956;2023-04-15T05:01:36;72.00;;;28.17;;
12597;SDS011;6364;53.590;9.956;2023-04-15T05:04:01;66.38;;;27.25;;
12597;SDS011;6364;53.590;9.956;2023-04-15T05:06:28;65.30;;;28.08;;
12597;SDS011;6364;53.590;9.956;2023-04-15T05:08:55;70.18;;;26.88;;
12597;SDS011;6364;53.590;9.956;2023-04-15T05:11:20;74.85;;;29.15;;
12597;SDS011;6364;53.590;9.956;2023-04-15T05:13:45;70.10;;;28.50;;
12597;SDS011;6364;53.590;9.956;2023-04-15T05:16:11;70.63;;;29.00;;
12597;SDS011;6364;53.590;9.956;2023-04-15T05:18:36;78.63;;;30.00;;
12597;SDS011;6364;53.590;9.956;2023-04-15T05:21:02;83.22;;;31.27;;
12597;SDS011;6364;53.590;9.956;2023-04-15T05:23:27;82.90;;;30.08;;
12597;SDS011;6364;53.590;9.956;2023-04-15T05:25:52;85.25;;;31.63;;
12597;SDS011;6364;53.590;9.956;2023-04-15T05:28:18;84.10;;;30.88;;
12597;SDS011;6364;53.590;9.956;2023-04-15T05:30:43;89.03;;;32.33;;
12597;SDS011;6364;53.590;9.956;2023-04-15T05:33:08;82.97;;;32.20;;
12597;SDS011;6364;53.590;9.956;2023-04-15T05:35:34;87.80;;;32.47;;
12597;SDS011;6364;53.590;9.956;2023-04-15T05:37:59;83.43;;;30.95;;
12597;SDS011;6364;53.590;9.956;2023-04-15T05:40:25;84.32;;;32.00;;
12597;SDS011;6364;53.590;9.956;2023-04-15T05:42:50;80.75;;;31.90;;
12597;SDS011;6364;53.590;9.956;2023-04-15T05:45:15;83.60;;;32.60;;
12597;SDS011;6364;53.590;9.956;2023-04-15T05:47:41;89.22;;;35.38;;
12597;SDS011;6364;53.590;9.956;2023-04-15T05:50:07;85.05;;;33.15;;
12597;SDS011;6364;53.590;9.956;2023-04-15T05:52:32;81.68;;;33.90;;
12597;SDS011;6364;53.590;9.956;2023-04-15T05:54:57;79.75;;;33.40;;
12597;SDS011;6364;53.590;9.956;2023-04-15T05:57:23;81.22;;;34.75;;
12597;SDS011;6364;53.590;9.956;2023-04-15T05:59:48;77.28;;;32.35;;
12597;SDS011;6364;53.590;9.956;2023-04-15T06:02:16;78.53;;;33.50;;
12597;SDS011;6364;53.590;9.956;2023-04-15T06:04:41;81.07;;;33.75;;
12597;SDS011;6364;53.590;9.956;2023-04-15T06:07:07;79.20;;;33.00;;
12597;SDS011;6364;53.590;9.956;2023-04-15T06:09:32;80.78;;;32.80;;
12597;SDS011;6364;53.590;9.956;2023-04-15T06:11:57;84.13;;;33.72;;
12597;SDS011;6364;53.590;9.956;2023-04-15T06:14:23;79.53;;;34.10;;
12597;SDS011;6364;53.590;9.956;2023-04-15T06:16:48;82.97;;;37.15;;
12597;SDS011;6364;53.590;9.956;2023-04-15T06:19:13;83.82;;;35.38;;
12597;SDS011;6364;53.590;9.956;2023-04-15T06:21:39;90.25;;;36.90;;
12597;SDS011;6364;53.590;9.956;2023-04-15T06:24:05;86.88;;;35.85;;
12597;SDS011;6364;53.590;9.956;2023-04-15T06:26:30;91.45;;;35.70;;
12597;SDS011;6364;53.590;9.956;2023-04-15T06:28:56;96.22;;;37.95;;
12597;SDS011;6364;53.590;9.956;2023-04-15T06:31:21;92.13;;;37.70;;
12597;SDS011;6364;53.590;9.956;2023-04-15T06:33:47;88.72;;;37.40;;
12597;SDS011;6364;53.590;9.956;2023-04-15T06:36:12;98.82;;;38.80;;
12597;SDS011;6364;53.590;9.956;2023-04-15T06:38:37;94.97;;;39.63;;
12597;SDS011;6364;53.590;9.956;2023-04-15T06:41:03;100.20;;;39.75;;
12597;SDS011;6364;53.590;9.956;2023-04-15T06:43:28;95.82;;;38.40;;
12597;SDS011;6364;53.590;9.956;2023-04-15T06:45:54;98.18;;;39.75;;
12597;SDS011;6364;53.590;9.956;2023-04-15T06:48:20;107.05;;;43.15;;
12597;SDS011;6364;53.590;9.956;2023-04-15T06:50:46;102.65;;;41.97;;
12597;SDS011;6364;53.590;9.956;2023-04-15T06:53:11;110.72;;;45.75;;
12597;SDS011;6364;53.590;9.956;2023-04-15T06:55:36;107.13;;;43.72;;
12597;SDS011;6364;53.590;9.956;2023-04-15T06:58:01;104.40;;;43.45;;
12597;SDS011;6364;53.590;9.956;2023-04-15T07:00:27;101.65;;;44.42;;
12597;SDS011;6364;53.590;9.956;2023-04-15T07:02:52;109.38;;;47.00;;
12597;SDS011;6364;53.590;9.956;2023-04-15T07:05:19;112.40;;;47.83;;
12597;SDS011;6364;53.590;9.956;2023-04-15T07:07:44;116.07;;;46.67;;
12597;SDS011;6364;53.590;9.956;2023-04-15T07:10:10;114.45;;;48.22;;
12597;SDS011;6364;53.590;9.956;2023-04-15T07:12:36;115.60;;;48.83;;
12597;SDS011;6364;53.590;9.956;2023-04-15T07:15:01;120.40;;;49.80;;
12597;SDS011;6364;53.590;9.956;2023-04-15T07:17:27;114.50;;;49.75;;
12597;SDS011;6364;53.590;9.956;2023-04-15T07:19:52;110.20;;;47.63;;
12597;SDS011;6364;53.590;9.956;2023-04-15T07:22:18;119.05;;;49.97;;
12597;SDS011;6364;53.590;9.956;2023-04-15T07:24:44;110.80;;;46.25;;
12597;SDS011;6364;53.590;9.956;2023-04-15T07:27:10;119.05;;;50.15;;
12597;SDS011;6364;53.590;9.956;2023-04-15T07:29:35;118.22;;;49.88;;
12597;SDS011;6364;53.590;9.956;2023-04-15T07:32:00;114.88;;;49.95;;
12597;SDS011;6364;53.590;9.956;2023-04-15T07:34:26;123.55;;;51.55;;
12597;SDS011;6364;53.590;9.956;2023-04-15T07:36:51;117.32;;;49.47;;
12597;SDS011;6364;53.590;9.956;2023-04-15T07:39:17;109.22;;;48.97;;
12597;SDS011;6364;53.590;9.956;2023-04-15T07:41:42;111.55;;;46.75;;
12597;SDS011;6364;53.590;9.956;2023-04-15T07:44:08;111.47;;;49.15;;
12597;SDS011;6364;53.590;9.956;2023-04-15T07:46:33;110.95;;;48.33;;
12597;SDS011;6364;53.590;9.956;2023-04-15T07:49:00;113.70;;;48.53;;
12597;SDS011;6364;53.590;9.956;2023-04-15T07:51:25;111.18;;;48.92;;
12597;SDS011;6364;53.590;9.956;2023-04-15T07:53:51;103.60;;;46.97;;
12597;SDS011;6364;53.590;9.956;2023-04-15T07:56:16;107.20;;;48.03;;
12597;SDS011;6364;53.590;9.956;2023-04-15T07:58:42;104.53;;;46.15;;
12597;SDS011;6364;53.590;9.956;2023-04-15T08:01:07;105.57;;;48.53;;
12597;SDS011;6364;53.590;9.956;2023-04-15T08:03:33;109.10;;;48.22;;
12597;SDS011;6364;53.590;9.956;2023-04-15T08:05:58;97.65;;;45.55;;
12597;SDS011;6364;53.590;9.956;2023-04-15T08:08:24;104.03;;;47.47;;
12597;SDS011;6364;53.590;9.956;2023-04-15T08:10:50;108.18;;;48.35;;
12597;SDS011;6364;53.590;9.956;2023-04-15T08:13:15;110.97;;;48.95;;
12597;SDS011;6364;53.590;9.956;2023-04-15T08:15:41;107.38;;;46.90;;
12597;SDS011;6364;53.590;9.956;2023-04-15T08:18:06;107.25;;;50.00;;
12597;SDS011;6364;53.590;9.956;2023-04-15T08:20:31;114.78;;;48.33;;
12597;SDS011;6364;53.590;9.956;2023-04-15T08:22:57;95.00;;;47.38;;
12597;SDS011;6364;53.590;9.956;2023-04-15T08:25:22;101.47;;;49.17;;
12597;SDS011;6364;53.590;9.956;2023-04-15T08:27:47;104.03;;;47.80;;
12597;SDS011;6364;53.590;9.956;2023-04-15T08:30:13;110.95;;;50.10;;
12597;SDS011;6364;53.590;9.956;2023-04-15T08:32:38;97.45;;;47.83;;
12597;SDS011;6364;53.590;9.956;2023-04-15T08:35:04;104.85;;;47.63;;
12597;SDS011;6364;53.590;9.956;2023-04-15T08:37:29;97.55;;;46.90;;
12597;SDS011;6364;53.590;9.956;2023-04-15T08:39:55;93.70;;;45.92;;
12597;SDS011;6364;53.590;9.956;2023-04-15T08:42:22;95.70;;;44.97;;
12597;SDS011;6364;53.590;9.956;2023-04-15T08:44:54;97.40;;;47.67;;
12597;SDS011;6364;53.590;9.956;2023-04-15T08:47:19;90.80;;;45.47;;
12597;SDS011;6364;53.590;9.956;2023-04-15T08:49:46;91.25;;;44.78;;
12597;SDS011;6364;53.590;9.956;2023-04-15T08:52:17;88.22;;;44.85;;
12597;SDS011;6364;53.590;9.956;2023-04-15T08:54:43;98.30;;;45.72;;
12597;SDS011;6364;53.590;9.956;2023-04-15T08:57:09;90.45;;;44.65;;
12597;SDS011;6364;53.590;9.956;2023-04-15T08:59:34;84.05;;;41.30;;
12597;SDS011;6364;53.590;9.956;2023-04-15T09:02:00;86.82;;;43.90;;
12597;SDS011;6364;53.590;9.956;2023-04-15T09:04:26;89.85;;;44.83;;
12597;SDS011;6364;53.590;9.956;2023-04-15T09:06:52;87.55;;;44.40;;
12597;SDS011;6364;53.590;9.956;2023-04-15T09:09:17;91.43;;;44.00;;
12597;SDS011;6364;53.590;9.956;2023-04-15T09:11:42;87.18;;;43.78;;
12597;SDS011;6364;53.590;9.956;2023-04-15T09:14:08;84.53;;;43.42;;
12597;SDS011;6364;53.590;9.956;2023-04-15T09:19:22;83.75;;;44.65;;
12597;SDS011;6364;53.590;9.956;2023-04-15T09:21:48;81.82;;;44.90;;
12597;SDS011;6364;53.590;9.956;2023-04-15T09:24:15;86.22;;;43.65;;
12597;SDS011;6364;53.590;9.956;2023-04-15T09:26:40;81.78;;;44.15;;
12597;SDS011;6364;53.590;9.956;2023-04-15T09:29:07;76.22;;;42.38;;
12597;SDS011;6364;53.590;9.956;2023-04-15T09:31:34;76.38;;;42.47;;
12597;SDS011;6364;53.590;9.956;2023-04-15T09:34:02;81.35;;;41.95;;
12597;SDS011;6364;53.590;9.956;2023-04-15T09:36:27;78.22;;;42.28;;
12597;SDS011;6364;53.590;9.956;2023-04-15T09:38:57;78.07;;;42.38;;
12597;SDS011;6364;53.590;9.956;2023-04-15T09:41:24;77.45;;;42.47;;
12597;SDS011;6364;53.590;9.956;2023-04-15T09:43:49;69.03;;;39.95;;
12597;SDS011;6364;53.590;9.956;2023-04-15T09:46:15;73.63;;;39.97;;
12597;SDS011;6364;53.590;9.956;2023-04-15T09:48:40;74.68;;;40.30;;
12597;SDS011;6364;53.590;9.956;2023-04-15T09:51:06;74.85;;;41.30;;
12597;SDS011;6364;53.590;9.956;2023-04-15T09:53:32;69.38;;;38.80;;
12597;SDS011;6364;53.590;9.956;2023-04-15T09:55:59;67.05;;;39.25;;
12597;SDS011;6364;53.590;9.956;2023-04-15T09:58:28;64.28;;;36.50;;
12597;SDS011;6364;53.590;9.956;2023-04-15T10:00:55;61.65;;;37.17;;
12597;SDS011;6364;53.590;9.956;2023-04-15T10:03:32;60.53;;;36.15;;
12597;SDS011;6364;53.590;9.956;2023-04-15T10:05:59;59.47;;;38.22;;
12597;SDS011;6364;53.590;9.956;2023-04-15T10:08:26;58.17;;;36.58;;
12597;SDS011;6364;53.590;9.956;2023-04-15T10:10:53;58.35;;;35.95;;
12597;SDS011;6364;53.590;9.956;2023-04-15T10:13:19;52.20;;;34.63;;
12597;SDS011;6364;53.590;9.956;2023-04-15T10:15:57;53.58;;;34.25;;
12597;SDS011;6364;53.590;9.956;2023-04-15T10:18:25;58.00;;;33.40;;
12597;SDS011;6364;53.590;9.956;2023-04-15T10:20:51;49.88;;;31.98;;
12597;SDS011;6364;53.590;9.956;2023-04-15T10:23:18;58.50;;;34.08;;
12597;SDS011;6364;53.590;9.956;2023-04-15T10:25:47;55.20;;;33.40;;
12597;SDS011;6364;53.590;9.956;2023-04-15T10:28:14;50.22;;;31.60;;
12597;SDS011;6364;53.590;9.956;2023-04-15T10:30:40;44.60;;;30.67;;
12597;SDS011;6364;53.590;9.956;2023-04-15T10:33:07;47.45;;;29.98;;
12597;SDS011;6364;53.590;9.956;2023-04-15T10:35:33;48.47;;;30.67;;
12597;SDS011;6364;53.590;9.956;2023-04-15T10:37:59;40.35;;;27.20;;
12597;SDS011;6364;53.590;9.956;2023-04-15T10:42:51;43.05;;;27.17;;
12597;SDS011;6364;53.590;9.956;2023-04-15T10:45:17;47.45;;;27.80;;
12597;SDS011;6364;53.590;9.956;2023-04-15T10:47:43;37.53;;;25.80;;
12597;SDS011;6364;53.590;9.956;2023-04-15T10:50:08;42.72;;;26.13;;
12597;SDS011;6364;53.590;9.956;2023-04-15T10:52:34;42.75;;;26.60;;
12597;SDS011;6364;53.590;9.956;2023-04-15T10:55:03;34.95;;;25.75;;
12597;SDS011;6364;53.590;9.956;2023-04-15T10:57:38;31.33;;;21.65;;
12597;SDS011;6364;53.590;9.956;2023-04-15T11:02:54;26.00;;;19.20;;
12597;SDS011;6364;53.590;9.956;2023-04-15T11:05:22;25.48;;;19.42;;
12597;SDS011;6364;53.590;9.956;2023-04-15T11:08:07;23.38;;;17.40;;
12597;SDS011;6364;53.590;9.956;2023-04-15T11:12:59;29.30;;;18.70;;
12597;SDS011;6364;53.590;9.956;2023-04-15T11:15:31;28.63;;;19.27;;
12597;SDS011;6364;53.590;9.956;2023-04-15T11:18:20;19.85;;;15.00;;
12597;SDS011;6364;53.590;9.956;2023-04-15T11:23:16;19.60;;;14.18;;
12597;SDS011;6364;53.590;9.956;2023-04-15T11:25:42;18.08;;;12.48;;
12597;SDS011;6364;53.590;9.956;2023-04-15T11:28:08;20.08;;;12.57;;
12597;SDS011;6364;53.590;9.956;2023-04-15T11:30:34;16.40;;;11.75;;
12597;SDS011;6364;53.590;9.956;2023-04-15T11:33:01;16.83;;;11.75;;
12597;SDS011;6364;53.590;9.956;2023-04-15T11:35:32;16.73;;;12.00;;
12597;SDS011;6364;53.590;9.956;2023-04-15T11:37:58;15.43;;;12.20;;
12597;SDS011;6364;53.590;9.956;2023-04-15T11:40:28;16.92;;;12.55;;
12597;SDS011;6364;53.590;9.956;2023-04-15T11:45:36;17.15;;;13.68;;
12597;SDS011;6364;53.590;9.956;2023-04-15T11:48:08;16.88;;;13.15;;
12597;SDS011;6364;53.590;9.956;2023-04-15T11:53:03;15.60;;;12.82;;
12597;SDS011;6364;53.590;9.956;2023-04-15T11:55:29;16.10;;;12.23;;
12597;SDS011;6364;53.590;9.956;2023-04-15T12:00:36;14.50;;;10.98;;
12597;SDS011;6364;53.590;9.956;2023-04-15T12:14:03;15.05;;;12.13;;
12597;SDS011;6364;53.590;9.956;2023-04-15T12:16:29;15.27;;;12.35;;
12597;SDS011;6364;53.590;9.956;2023-04-15T12:18:55;19.25;;;13.23;;
12597;SDS011;6364;53.590;9.956;2023-04-15T12:21:23;19.48;;;13.65;;
12597;SDS011;6364;53.590;9.956;2023-04-15T12:23:50;16.88;;;12.73;;
12597;SDS011;6364;53.590;9.956;2023-04-15T12:26:17;16.63;;;12.43;;
12597;SDS011;6364;53.590;9.956;2023-04-15T12:28:43;17.13;;;11.93;;
12597;SDS011;6364;53.590;9.956;2023-04-15T12:31:09;15.13;;;11.45;;
12597;SDS011;6364;53.590;9.956;2023-04-15T12:33:34;15.02;;;11.52;;
12597;SDS011;6364;53.590;9.956;2023-04-15T12:36:00;15.50;;;11.52;;
12597;SDS011;6364;53.590;9.956;2023-04-15T12:38:25;13.93;;;11.10;;
12597;SDS011;6364;53.590;9.956;2023-04-15T12:40:51;17.23;;;12.07;;
12597;SDS011;6364;53.590;9.956;2023-04-15T12:43:16;13.75;;;11.30;;
12597;SDS011;6364;53.590;9.956;2023-04-15T12:45:41;14.95;;;11.52;;
12597;SDS011;6364;53.590;9.956;2023-04-15T12:48:07;16.73;;;11.75;;
12597;SDS011;6364;53.590;9.956;2023-04-15T12:50:33;18.27;;;12.25;;
12597;SDS011;6364;53.590;9.956;2023-04-15T12:52:59;16.38;;;12.35;;
12597;SDS011;6364;53.590;9.956;2023-04-15T12:55:25;17.45;;;12.00;;
12597;SDS011;6364;53.590;9.956;2023-04-15T12:57:50;15.25;;;11.80;;
12597;SDS011;6364;53.590;9.956;2023-04-15T13:00:16;16.20;;;11.77;;
12597;SDS011;6364;53.590;9.956;2023-04-15T13:02:42;16.40;;;12.05;;
12597;SDS011;6364;53.590;9.956;2023-04-15T13:05:08;16.63;;;11.98;;
12597;SDS011;6364;53.590;9.956;2023-04-15T13:07:33;20.17;;;12.15;;
12597;SDS011;6364;53.590;9.956;2023-04-15T13:09:58;14.73;;;11.70;;
12597;SDS011;6364;53.590;9.956;2023-04-15T13:12:24;18.15;;;12.48;;
12597;SDS011;6364;53.590;9.956;2023-04-15T13:14:49;15.85;;;12.00;;
12597;SDS011;6364;53.590;9.956;2023-04-15T13:17:14;14.40;;;11.45;;
12597;SDS011;6364;53.590;9.956;2023-04-15T13:19:44;15.15;;;11.25;;
12597;SDS011;6364;53.590;9.956;2023-04-15T13:22:09;14.13;;;11.13;;
12597;SDS011;6364;53.590;9.956;2023-04-15T13:24:35;14.43;;;10.88;;
12597;SDS011;6364;53.590;9.956;2023-04-15T13:27:01;14.32;;;11.13;;
12597;SDS011;6364;53.590;9.956;2023-04-15T13:29:26;14.88;;;11.20;;
12597;SDS011;6364;53.590;9.956;2023-04-15T13:31:51;17.38;;;10.48;;
12597;SDS011;6364;53.590;9.956;2023-04-15T13:34:17;15.90;;;10.50;;
12597;SDS011;6364;53.590;9.956;2023-04-15T13:36:42;13.27;;;10.43;;
12597;SDS011;6364;53.590;9.956;2023-04-15T13:39:07;15.18;;;10.90;;
12597;SDS011;6364;53.590;9.956;2023-04-15T13:41:33;15.82;;;10.73;;
12597;SDS011;6364;53.590;9.956;2023-04-15T13:43:58;12.00;;;10.50;;
12597;SDS011;6364;53.590;9.956;2023-04-15T13:46:23;13.75;;;10.80;;
12597;SDS011;6364;53.590;9.956;2023-04-15T13:48:50;15.35;;;11.10;;
12597;SDS011;6364;53.590;9.956;2023-04-15T13:51:15;13.63;;;11.07;;
12597;SDS011;6364;53.590;9.956;2023-04-15T13:53:40;14.07;;;10.65;;
12597;SDS011;6364;53.590;9.956;2023-04-15T13:56:06;13.82;;;10.52;;
12597;SDS011;6364;53.590;9.956;2023-04-15T13:58:31;13.93;;;10.70;;
12597;SDS011;6364;53.590;9.956;2023-04-15T14:00:57;14.50;;;10.05;;
12597;SDS011;6364;53.590;9.956;2023-04-15T14:03:22;10.60;;;9.18;;
12597;SDS011;6364;53.590;9.956;2023-04-15T14:05:47;14.23;;;9.88;;
12597;SDS011;6364;53.590;9.956;2023-04-15T14:08:19;13.45;;;9.45;;
12597;SDS011;6364;53.590;9.956;2023-04-15T14:10:44;10.77;;;8.52;;
12597;SDS011;6364;53.590;9.956;2023-04-15T14:13:12;13.07;;;9.48;;
12597;SDS011;6364;53.590;9.956;2023-04-15T14:15:39;11.38;;;8.75;;
12597;SDS011;6364;53.590;9.956;2023-04-15T14:18:04;10.63;;;8.65;;
12597;SDS011;6364;53.590;9.956;2023-04-15T14:20:30;12.60;;;9.85;;
12597;SDS011;6364;53.590;9.956;2023-04-15T14:22:55;11.98;;;9.38;;
12597;SDS011;6364;53.590;9.956;2023-04-15T14:25:20;13.88;;;10.02;;
12597;SDS011;6364;53.590;9.956;2023-04-15T14:27:46;12.38;;;10.25;;
12597;SDS011;6364;53.590;9.956;2023-04-15T14:30:12;10.85;;;9.38;;
12597;SDS011;6364;53.590;9.956;2023-04-15T14:32:37;12.55;;;9.65;;
12597;SDS011;6364;53.590;9.956;2023-04-15T14:35:02;13.10;;;10.50;;
12597;SDS011;6364;53.590;9.956;2023-04-15T14:37:28;12.55;;;9.88;;
12597;SDS011;6364;53.590;9.956;2023-04-15T14:39:53;12.93;;;9.68;;
12597;SDS011;6364;53.590;9.956;2023-04-15T14:42:19;11.98;;;9.40;;
12597;SDS011;6364;53.590;9.956;2023-04-15T14:44:44;14.40;;;10.57;;
12597;SDS011;6364;53.590;9.956;2023-04-15T14:47:10;15.38;;;9.57;;
12597;SDS011;6364;53.590;9.956;2023-04-15T14:49:35;11.10;;;9.55;;
12597;SDS011;6364;53.590;9.956;2023-04-15T14:52:01;11.90;;;9.43;;
12597;SDS011;6364;53.590;9.956;2023-04-15T14:54:26;14.10;;;10.00;;
12597;SDS011;6364;53.590;9.956;2023-04-15T14:56:51;12.48;;;9.15;;
12597;SDS011;6364;53.590;9.956;2023-04-15T14:59:17;11.88;;;9.18;;